Time;durP1;ratioP1;P1;durP2;ratioP2;P2;SDS_P1;SDS_P2;PMS_P1;PMS_P2;Temp;Humidity;BMP_temperature;BMP_pressure;BME280_temperature;BME280_humidity;BME280_pressure;Samples;Min_cycle;Max_cycle;Signal;HPM_P1;HPM_P2
2022/03/20 00:00:23;;;;;;;;;;;;;;;;;;5055951;28;19921;-93
2022/03/20 00:02:49;;;;;;;;;;;;;;;;;;5046820;28;20440;-92
2022/03/20 00:05:15;;;;;;;;;;;;;;;;;;5045406;28;20332;-93
2022/03/20 00:07:41;;;;;;;;;;;;;;;;;;5044433;28;19925;-92
2022/03/20 00:10:07;;;;;;;;;;;;;;;;;;5045686;28;19975;-92
2022/03/20 00:12:34;;;;;;;;;;;;;;;;;;5033573;28;19991;-93
2022/03/20 00:15:00;;;;;;;;;;;;;;;;;;5031743;28;19979;-93
2022/03/20 00:17:26;;;;;;;;;;;;;;;;;;5043391;28;20335;-93
2022/03/20 00:19:53;;;;;;;;;;;;;;;;;;5043820;28;19921;-93
2022/03/20 00:22:19;;;;;;;;;;;;;;;;;;5042973;28;19966;-92
2022/03/20 00:24:47;;;;;;;;;;;;;;;;;;5043594;28;19952;-93
2022/03/20 00:27:13;;;;;;;;;;;;;;;;;;5034427;28;19921;-92
2022/03/20 00:29:39;;;;;;;;;;;;;;;;;;5023786;28;19922;-93
2022/03/20 00:32:05;;;;;;;;;;;;;;;;;;5038882;28;19932;-92
2022/03/20 00:34:32;;;;;;;;;;;;;;;;;;5045347;28;19925;-92
2022/03/20 00:36:58;;;;;;;;;;;;;;;;;;5044987;28;19921;-92
2022/03/20 00:39:24;;;;;;;;;;;;;;;;;;5044329;28;19967;-92
2022/03/20 00:41:50;;;;;;;;;;;;;;;;;;5038767;28;19921;-93
2022/03/20 00:44:17;;;;;;;;;;;;;;;;;;5023665;28;19928;-94
2022/03/20 00:46:43;;;;;;;;;;;;;;;;;;5033266;28;19921;-93
2022/03/20 00:49:09;;;;;;;;;;;;;;;;;;5043499;28;19921;-94
2022/03/20 00:51:36;;;;;;;;;;;;;;;;;;5044371;28;19960;-94
2022/03/20 00:54:02;;;;;;;;;;;;;;;;;;5044785;28;19921;-93
2022/03/20 00:56:28;;;;;;;;;;;;;;;;;;5043095;28;19921;-93
2022/03/20 00:58:54;;;;;;;;;;;;;;;;;;5024596;28;19945;-93
2022/03/20 01:01:20;;;;;;;;;;;;;;;;;;5028117;28;19921;-93
2022/03/20 01:03:47;;;;;;;;;;;;;;;;;;5024115;28;19944;-92
2022/03/20 01:06:13;;;;;;;;;;;;;;;;;;5022450;28;19945;-92
2022/03/20 01:08:39;;;;;;;;;;;;;;;;;;5022258;28;19921;-94
2022/03/20 01:11:05;;;;;;;;;;;;;;;;;;5022768;28;19952;-94
2022/03/20 01:13:32;;;;;;;;;;;;;;;;;;5022818;28;19983;-94
2022/03/20 01:15:58;;;;;;;;;;;;;;;;;;5024210;28;19921;-93
2022/03/20 01:18:24;;;;;;;;;;;;;;;;;;5039810;28;19929;-93
2022/03/20 01:20:51;;;;;;;;;;;;;;;;;;5037968;28;20019;-93
2022/03/20 01:23:17;;;;;;;;;;;;;;;;;;5024096;28;19968;-93
2022/03/20 01:25:43;;;;;;;;;;;;;;;;;;5024081;28;19921;-93
2022/03/20 01:28:09;;;;;;;;;;;;;;;;;;5024071;28;19967;-91
2022/03/20 01:30:36;;;;;;;;;;;;;;;;;;5023892;28;19972;-91
2022/03/20 01:33:02;;;;;;;;;;;;;;;;;;5037149;28;19920;-91
2022/03/20 01:35:28;;;;;;;;;;;;;;;;;;5041595;28;19921;-92
2022/03/20 01:37:54;;;;;;;;;;;;;;;;;;5037301;28;19921;-93
2022/03/20 01:40:20;;;;;;;;;;;;;;;;;;5034887;28;19921;-94
2022/03/20 01:42:48;;;;;;;;;;;;;;;;;;5024272;28;19944;-93
2022/03/20 01:45:14;;;;;;;;;;;;;;;;;;5042831;28;19921;-92
2022/03/20 01:47:40;;;;;;;;;;;;;;;;;;5042916;28;19944;-94
2022/03/20 01:50:07;;;;;;;;;;;;;;;;;;5043237;28;19921;-93
2022/03/20 01:52:33;;;;;;;;;;;;;;;;;;5035197;28;19921;-94
2022/03/20 01:54:59;;;;;;;;;;;;;;;;;;5023845;28;19921;-93
2022/03/20 01:57:26;;;;;;;;;;;;;;;;;;5024060;28;19925;-93
2022/03/20 01:59:52;;;;;;;;;;;;;;;;;;5023988;28;19968;-92
2022/03/20 02:02:18;;;;;;;;;;;;;;;;;;5031679;28;19921;-93
2022/03/20 02:04:44;;;;;;;;;;;;;;;;;;5043346;28;19948;-93
2022/03/20 02:07:12;;;;;;;;;;;;;;;;;;5039313;28;19921;-93
2022/03/20 02:09:38;;;;;;;;;;;;;;;;;;5041015;28;19928;-93
2022/03/20 02:12:05;;;;;;;;;;;;;;;;;;5043605;28;19921;-93
2022/03/20 02:14:31;;;;;;;;;;;;;;;;;;5043324;28;19975;-92
2022/03/20 02:16:57;;;;;;;;;;;;;;;;;;5043135;28;19928;-92
2022/03/20 02:19:24;;;;;;;;;;;;;;;;;;5043675;28;19921;-93
2022/03/20 02:21:50;;;;;;;;;;;;;;;;;;5043369;28;19921;-92
2022/03/20 02:24:17;;;;;;;;;;;;;;;;;;5023370;28;20017;-92
2022/03/20 02:26:43;;;;;;;;;;;;;;;;;;5036505;28;19921;-91
2022/03/20 02:29:10;;;;;;;;;;;;;;;;;;5024576;28;20040;-91
2022/03/20 02:31:36;;;;;;;;;;;;;;;;;;5024933;28;19922;-92
2022/03/20 02:34:02;;;;;;;;;;;;;;;;;;5043352;28;19927;-92
2022/03/20 02:36:28;;;;;;;;;;;;;;;;;;5043152;28;19937;-93
2022/03/20 02:38:54;;;;;;;;;;;;;;;;;;5027897;28;19921;-92
2022/03/20 02:41:21;;;;;;;;;;;;;;;;;;5033180;28;19921;-93
2022/03/20 02:43:47;;;;;;;;;;;;;;;;;;5028333;28;19929;-92
2022/03/20 02:46:13;;;;;;;;;;;;;;;;;;5023647;28;19928;-93
2022/03/20 02:48:39;;;;;;;;;;;;;;;;;;5041687;28;19921;-93
2022/03/20 02:51:06;;;;;;;;;;;;;;;;;;5041009;28;19971;-93
2022/03/20 02:53:34;;;;;;;;;;;;;;;;;;5028719;28;19921;-92
2022/03/20 02:56:01;;;;;;;;;;;;;;;;;;5023217;28;19968;-92
2022/03/20 02:58:27;;;;;;;;;;;;;;;;;;5026393;28;19951;-93
2022/03/20 03:00:54;;;;;;;;;;;;;;;;;;5041384;28;19921;-94
2022/03/20 03:03:21;;;;;;;;;;;;;;;;;;5041340;28;19921;-93
2022/03/20 03:05:47;;;;;;;;;;;;;;;;;;5040779;28;19975;-94
2022/03/20 03:11:12;;;;;;;;;;;;;;;;;;4961636;28;19976;-93
2022/03/20 03:13:38;;;;;;;;;;;;;;;;;;4972763;28;19922;-93
2022/03/20 03:16:04;;;;;;;;;;;;;;;;;;4999079;28;19945;-92
2022/03/20 03:18:31;;;;;;;;;;;;;;;;;;5050500;28;19905;-93
2022/03/20 03:20:57;;;;;;;;;;;;;;;;;;5041935;28;19921;-92
2022/03/20 03:23:24;;;;;;;;;;;;;;;;;;5031815;28;20304;-93
2022/03/20 03:25:51;;;;;;;;;;;;;;;;;;5023055;28;20839;-92
2022/03/20 03:28:17;;;;;;;;;;;;;;;;;;5022373;28;20770;-92
2022/03/20 03:30:43;;;;;;;;;;;;;;;;;;5026713;28;20758;-92
2022/03/20 03:33:09;;;;;;;;;;;;;;;;;;5035705;28;20352;-93
2022/03/20 03:35:47;;;;;;;;;;;;;;;;;;5021874;28;20429;-92
2022/03/20 03:38:13;;;;;;;;;;;;;;;;;;5021597;28;20405;-93
2022/03/20 03:40:39;;;;;;;;;;;;;;;;;;5022740;28;20359;-94
2022/03/20 03:43:05;;;;;;;;;;;;;;;;;;5023095;28;20410;-93
2022/03/20 03:45:32;;;;;;;;;;;;;;;;;;5023108;28;20427;-94
2022/03/20 03:47:58;;;;;;;;;;;;;;;;;;5034400;28;20405;-94
2022/03/20 03:50:24;;;;;;;;;;;;;;;;;;5041314;28;20404;-95
2022/03/20 03:52:50;;;;;;;;;;;;;;;;;;5037750;28;20487;-94
2022/03/20 03:55:16;;;;;;;;;;;;;;;;;;5021224;28;20364;-94
2022/03/20 03:57:43;;;;;;;;;;;;;;;;;;5023716;28;20360;-95
2022/03/20 04:00:09;;;;;;;;;;;;;;;;;;5025109;28;20384;-94
2022/03/20 04:02:35;;;;;;;;;;;;;;;;;;5035973;28;20434;-94
2022/03/20 04:05:01;;;;;;;;;;;;;;;;;;5026550;28;20363;-93
2022/03/20 04:07:28;;;;;;;;;;;;;;;;;;5045479;28;20733;-93
2022/03/20 04:09:55;;;;;;;;;;;;;;;;;;5027227;28;20373;-93
2022/03/20 04:12:21;;;;;;;;;;;;;;;;;;5025807;28;20359;-93
2022/03/20 04:14:48;;;;;;;;;;;;;;;;;;5026304;28;20355;-92
2022/03/20 04:17:14;;;;;;;;;;;;;;;;;;5032634;28;20411;-92
2022/03/20 04:19:41;;;;;;;;;;;;;;;;;;5045034;28;20381;-91
2022/03/20 04:22:07;;;;;;;;;;;;;;;;;;5041659;28;20385;-91
2022/03/20 04:24:36;;;;;;;;;;;;;;;;;;5028379;28;20355;-92
2022/03/20 04:27:02;;;;;;;;;;;;;;;;;;5025732;28;20353;-92
2022/03/20 04:29:29;;;;;;;;;;;;;;;;;;5025444;28;20760;-92
2022/03/20 04:31:55;;;;;;;;;;;;;;;;;;5029517;28;20836;-92
2022/03/20 04:34:22;;;;;;;;;;;;;;;;;;5045498;28;20406;-92
2022/03/20 04:36:48;;;;;;;;;;;;;;;;;;5044646;28;20915;-92
2022/03/20 04:39:14;;;;;;;;;;;;;;;;;;5034662;28;20342;-91
2022/03/20 04:41:41;;;;;;;;;;;;;;;;;;5043521;28;20377;-92
2022/03/20 04:44:12;;;;;;;;;;;;;;;;;;5033646;28;20360;-92
2022/03/20 04:46:38;;;;;;;;;;;;;;;;;;5027453;28;20366;-93
2022/03/20 05:00:00;;;;;;;;;;;;;;;;;;5044248;28;20407;-95
2022/03/20 05:02:27;;;;;;;;;;;;;;;;;;5044210;28;20353;-94
2022/03/20 05:04:53;;;;;;;;;;;;;;;;;;5043951;28;20398;-93
2022/03/20 05:07:19;;;;;;;;;;;;;;;;;;5043826;28;20357;-93
2022/03/20 05:15:14;;;;;;;;;;;;;;;;;;5044236;28;20416;-93
2022/03/20 05:17:41;;;;;;;;;;;;;;;;;;5043951;28;20408;-93
2022/03/20 05:20:07;;;;;;;;;;;;;;;;;;5043598;28;20343;-94
2022/03/20 05:22:34;;;;;;;;;;;;;;;;;;5044517;28;20379;-93
2022/03/20 05:25:01;;;;;;;;;;;;;;;;;;5028691;28;20478;-93
2022/03/20 05:27:27;;;;;;;;;;;;;;;;;;5026625;28;20361;-93
2022/03/20 05:29:54;;;;;;;;;;;;;;;;;;5029339;28;20355;-93
2022/03/20 05:32:20;;;;;;;;;;;;;;;;;;5030696;28;20353;-92
2022/03/20 05:34:47;;;;;;;;;;;;;;;;;;5043655;28;20138;-92
2022/03/20 05:37:13;;;;;;;;;;;;;;;;;;5044282;28;19943;-92
2022/03/20 05:39:39;;;;;;;;;;;;;;;;;;5032093;28;19925;-91
2022/03/20 05:42:05;;;;;;;;;;;;;;;;;;5023384;28;19921;-93
2022/03/20 05:44:32;;;;;;;;;;;;;;;;;;5030852;28;19921;-92
2022/03/20 05:46:58;;;;;;;;;;;;;;;;;;5043754;28;19925;-93
2022/03/20 05:49:24;;;;;;;;;;;;;;;;;;5043794;28;19944;-92
2022/03/20 05:51:50;;;;;;;;;;;;;;;;;;5044133;28;19967;-91
2022/03/20 05:54:16;;;;;;;;;;;;;;;;;;5035606;28;19925;-93
2022/03/20 05:59:26;;;;;;;;;;;;;;;;;;5022266;28;20285;-93
2022/03/20 06:01:53;;;;;;;;;;;;;;;;;;5032553;28;20356;-94
2022/03/20 06:04:19;;;;;;;;;;;;;;;;;;5042886;28;20324;-95
2022/03/20 06:06:45;;;;;;;;;;;;;;;;;;5042701;28;19921;-94
2022/03/20 06:09:12;;;;;;;;;;;;;;;;;;5036594;28;19922;-94
2022/03/20 06:11:38;;;;;;;;;;;;;;;;;;5022283;28;19943;-95
2022/03/20 06:14:04;;;;;;;;;;;;;;;;;;5022080;28;19921;-93
2022/03/20 06:16:30;;;;;;;;;;;;;;;;;;5023332;28;19921;-95
2022/03/20 06:18:57;;;;;;;;;;;;;;;;;;5037135;28;19972;-94
2022/03/20 06:21:23;;;;;;;;;;;;;;;;;;5024226;28;19922;-94
2022/03/20 06:23:50;;;;;;;;;;;;;;;;;;5034508;28;20446;-95
2022/03/20 06:26:16;;;;;;;;;;;;;;;;;;5023541;28;20632;-93
2022/03/20 06:28:43;;;;;;;;;;;;;;;;;;5023678;28;19981;-94
2022/03/20 06:31:10;;;;;;;;;;;;;;;;;;5027621;28;19921;-94
2022/03/20 06:33:37;;;;;;;;;;;;;;;;;;5052808;28;19976;-94
2022/03/20 06:36:03;;;;;;;;;;;;;;;;;;5043894;28;19994;-94
2022/03/20 06:38:30;;;;;;;;;;;;;;;;;;5043271;28;20453;-94
2022/03/20 06:40:56;;;;;;;;;;;;;;;;;;5024721;28;19921;-93
2022/03/20 06:43:23;;;;;;;;;;;;;;;;;;5023664;28;19975;-94
2022/03/20 06:45:50;;;;;;;;;;;;;;;;;;5022397;28;19948;-94
2022/03/20 06:48:16;;;;;;;;;;;;;;;;;;5037054;28;19928;-94
2022/03/20 06:50:49;;;;;;;;;;;;;;;;;;5041054;28;19944;-96
2022/03/20 06:53:18;;;;;;;;;;;;;;;;;;5039438;28;19964;-96
2022/03/20 06:55:44;;;;;;;;;;;;;;;;;;5039802;28;19921;-94
2022/03/20 06:58:11;;;;;;;;;;;;;;;;;;5043621;28;19967;-96
2022/03/20 07:00:38;;;;;;;;;;;;;;;;;;5023581;28;19921;-96
2022/03/20 07:03:06;;;;;;;;;;;;;;;;;;5033953;28;19921;-96
2022/03/20 07:05:32;;;;;;;;;;;;;;;;;;5042046;28;19940;-96
2022/03/20 07:07:59;;;;;;;;;;;;;;;;;;5040678;28;19921;-96
2022/03/20 07:10:25;;;;;;;;;;;;;;;;;;5048460;28;19917;-96
2022/03/20 07:13:48;;;;;;;;;;;;;;;;;;5053135;28;20279;-96
2022/03/20 07:15:38;;;;;;;;;;;;;;;;;;5030281;28;20393;-96
2022/03/20 07:18:05;;;;;;;;;;;;;;;;;;5044933;23;19921;-96
2022/03/20 07:20:32;;;;;;;;;;;;;;;;;;5035094;28;19932;-96
2022/03/20 07:23:00;;;;;;;;;;;;;;;;;;5025255;28;20279;-96
2022/03/20 07:30:59;;;;;;;;;;;;;;;;;;5003479;28;19957;-96
2022/03/20 07:33:26;;;;;;;;;;;;;;;;;;5050539;23;19929;-96
2022/03/20 07:35:52;;;;;;;;;;;;;;;;;;5047856;28;19921;-95
2022/03/20 07:38:19;;;;;;;;;;;;;;;;;;5051882;28;19980;-96
2022/03/20 07:40:46;;;;;;;;;;;;;;;;;;5049406;28;19921;-95
2022/03/20 07:43:12;;;;;;;;;;;;;;;;;;5045107;28;19928;-96
2022/03/20 07:45:38;;;;;;;;;;;;;;;;;;5053881;28;19947;-94
2022/03/20 07:48:05;;;;;;;;;;;;;;;;;;5060128;28;19921;-96
2022/03/20 07:50:31;;;;;;;;;;;;;;;;;;5069687;28;19948;-96
2022/03/20 07:53:00;;;;;;;;;;;;;;;;;;5027046;28;19925;-94
2022/03/20 07:55:30;;;;;;;;;;;;;;;;;;5051513;28;19924;-96
2022/03/20 07:58:05;;;;;;;;;;;;;;;;;;5045857;28;19921;-93
2022/03/20 08:00:31;;;;;;;;;;;;;;;;;;5042728;28;19975;-95
2022/03/20 08:02:59;;;;;;;;;;;;;;;;;;5043925;28;19949;-95
2022/03/20 08:05:27;;;;;;;;;;;;;;;;;;5044460;28;19944;-94
2022/03/20 08:07:53;;;;;;;;;;;;;;;;;;5045571;28;19956;-93
2022/03/20 08:10:19;;;;;;;;;;;;;;;;;;5043754;28;19975;-96
2022/03/20 08:12:46;;;;;;;;;;;;;;;;;;5056844;28;19909;-96
2022/03/20 08:15:15;;;;;;;;;;;;;;;;;;5059613;28;20016;-93
2022/03/20 08:17:41;;;;;;;;;;;;;;;;;;5035494;28;19984;-94
2022/03/20 08:20:07;;;;;;;;;;;;;;;;;;5045236;28;19928;-96
2022/03/20 08:22:34;;;;;;;;;;;;;;;;;;5045246;28;20378;-93
2022/03/20 08:25:00;;;;;;;;;;;;;;;;;;5044679;28;19925;-95
2022/03/20 08:27:26;;;;;;;;;;;;;;;;;;5045458;28;19929;-91
2022/03/20 08:29:53;;;;;;;;;;;;;;;;;;5040032;28;20004;-91
2022/03/20 08:32:21;;;;;;;;;;;;;;;;;;5046192;28;19925;-89
2022/03/20 08:34:48;;;;;;;;;;;;;;;;;;5057835;28;19944;-89
2022/03/20 08:37:14;;;;;;;;;;;;;;;;;;5023514;28;19921;-92
2022/03/20 08:39:40;;;;;;;;;;;;;;;;;;5025495;28;20262;-89
2022/03/20 08:42:07;;;;;;;;;;;;;;;;;;5041682;28;20381;-90
2022/03/20 08:44:33;;;;;;;;;;;;;;;;;;5041271;28;19921;-94
2022/03/20 08:47:00;;;;;;;;;;;;;;;;;;5039544;28;19952;-91
2022/03/20 08:49:26;;;;;;;;;;;;;;;;;;5040762;28;19996;-91
2022/03/20 08:51:52;;;;;;;;;;;;;;;;;;5042972;28;19952;-90
2022/03/20 08:54:18;;;;;;;;;;;;;;;;;;5044437;28;19936;-91
2022/03/20 08:56:45;;;;;;;;;;;;;;;;;;5043702;28;19943;-89
2022/03/20 08:59:11;;;;;;;;;;;;;;;;;;5042355;28;19921;-91
2022/03/20 09:01:37;;;;;;;;;;;;;;;;;;5042918;28;19925;-92
2022/03/20 09:04:04;;;;;;;;;;;;;;;;;;5063592;28;19921;-91
2022/03/20 09:06:30;;;;;;;;;;;;;;;;;;5042178;28;19944;-88
2022/03/20 09:08:57;;;;;;;;;;;;;;;;;;5044308;28;19924;-91
2022/03/20 09:11:23;;;;;;;;;;;;;;;;;;5042058;28;19924;-92
2022/03/20 09:13:49;;;;;;;;;;;;;;;;;;5040163;28;19924;-92
2022/03/20 09:19:07;;;;;;;;;;;;;;;;;;5043605;28;19981;-93
2022/03/20 09:21:33;;;;;;;;;;;;;;;;;;5041918;28;19928;-90
2022/03/20 09:24:00;;;;;;;;;;;;;;;;;;5040933;28;19921;-91
2022/03/20 09:26:26;;;;;;;;;;;;;;;;;;5038134;28;19921;-92
2022/03/20 09:28:52;;;;;;;;;;;;;;;;;;5039247;28;19921;-90
2022/03/20 09:31:19;;;;;;;;;;;;;;;;;;5038604;28;19921;-93
2022/03/20 09:33:46;;;;;;;;;;;;;;;;;;5039527;28;19929;-92
2022/03/20 09:36:12;;;;;;;;;;;;;;;;;;5040894;28;19921;-91
2022/03/20 09:38:38;;;;;;;;;;;;;;;;;;5042983;28;19921;-92
2022/03/20 09:41:07;;;;;;;;;;;;;;;;;;5040511;28;19975;-93
2022/03/20 09:43:33;;;;;;;;;;;;;;;;;;5041986;28;19928;-92
2022/03/20 09:45:59;;;;;;;;;;;;;;;;;;5042436;28;20278;-93
2022/03/20 09:48:25;;;;;;;;;;;;;;;;;;5042300;28;19944;-89
2022/03/20 09:50:52;;;;;;;;;;;;;;;;;;5043584;28;19932;-93
2022/03/20 09:53:19;;;;;;;;;;;;;;;;;;5043634;28;19943;-93
2022/03/20 09:55:46;;;;;;;;;;;;;;;;;;5048112;28;19909;-91
2022/03/20 09:58:12;;;;;;;;;;;;;;;;;;5054827;28;19921;-92
2022/03/20 10:00:39;;;;;;;;;;;;;;;;;;5040187;28;19979;-91
2022/03/20 10:03:06;;;;;;;;;;;;;;;;;;5037609;28;19921;-93
2022/03/20 10:05:32;;;;;;;;;;;;;;;;;;5041818;28;20270;-94
2022/03/20 10:07:58;;;;;;;;;;;;;;;;;;5043910;28;20351;-91
2022/03/20 10:10:25;;;;;;;;;;;;;;;;;;5043442;28;20383;-94
2022/03/20 10:12:53;;;;;;;;;;;;;;;;;;5043153;28;20349;-93
2022/03/20 10:15:19;;;;;;;;;;;;;;;;;;5038609;28;20412;-91
2022/03/20 10:17:45;;;;;;;;;;;;;;;;;;5036605;28;20382;-95
2022/03/20 10:20:11;;;;;;;;;;;;;;;;;;5038754;28;20360;-95
2022/03/20 10:22:38;;;;;;;;;;;;;;;;;;5041943;28;20483;-94
2022/03/20 10:25:04;;;;;;;;;;;;;;;;;;5042934;28;20349;-93
2022/03/20 10:27:30;;;;;;;;;;;;;;;;;;5041621;28;19921;-91
2022/03/20 10:29:57;;;;;;;;;;;;;;;;;;5041352;28;20324;-95
2022/03/20 10:32:23;;;;;;;;;;;;;;;;;;5039814;28;20355;-92
2022/03/20 10:34:50;;;;;;;;;;;;;;;;;;5041536;28;20376;-91
2022/03/20 10:37:16;;;;;;;;;;;;;;;;;;5041150;28;20383;-95
2022/03/20 10:39:42;;;;;;;;;;;;;;;;;;5041093;28;20349;-90
2022/03/20 10:42:09;;;;;;;;;;;;;;;;;;5041869;28;20349;-92
2022/03/20 10:44:35;;;;;;;;;;;;;;;;;;5034623;28;20371;-93
2022/03/20 10:47:02;;;;;;;;;;;;;;;;;;5042182;28;20358;-95
2022/03/20 10:49:28;;;;;;;;;;;;;;;;;;5061621;28;20414;-92
2022/03/20 10:51:54;;;;;;;;;;;;;;;;;;5035981;28;20387;-93
2022/03/20 10:54:22;;;;;;;;;;;;;;;;;;5040228;28;20351;-90
2022/03/20 10:56:48;;;;;;;;;;;;;;;;;;5042194;28;20381;-94
2022/03/20 10:59:14;;;;;;;;;;;;;;;;;;5041762;28;21093;-95
2022/03/20 11:01:42;;;;;;;;;;;;;;;;;;5041020;28;20806;-95
2022/03/20 11:04:08;;;;;;;;;;;;;;;;;;5062864;28;20350;-92
2022/03/20 11:06:35;;;;;;;;;;;;;;;;;;5050008;28;20415;-93
2022/03/20 11:09:04;;;;;;;;;;;;;;;;;;5045337;28;20353;-94
2022/03/20 11:11:30;;;;;;;;;;;;;;;;;;5045992;28;20403;-92
2022/03/20 11:13:56;;;;;;;;;;;;;;;;;;5046154;28;20346;-91
2022/03/20 11:16:22;;;;;;;;;;;;;;;;;;5045415;28;20361;-90
2022/03/20 11:18:49;;;;;;;;;;;;;;;;;;5062136;28;20383;-93
2022/03/20 11:21:15;;;;;;;;;;;;;;;;;;5040566;28;20351;-92
2022/03/20 11:23:41;;;;;;;;;;;;;;;;;;5045903;28;20347;-93
2022/03/20 11:26:07;;;;;;;;;;;;;;;;;;5045481;28;20358;-94
2022/03/20 11:28:34;;;;;;;;;;;;;;;;;;5045318;28;20350;-96
2022/03/20 11:31:00;;;;;;;;;;;;;;;;;;5046438;28;20359;-91
2022/03/20 11:33:26;;;;;;;;;;;;;;;;;;5046236;28;20573;-91
2022/03/20 11:35:53;;;;;;;;;;;;;;;;;;5046996;28;20351;-90
2022/03/20 11:38:19;;;;;;;;;;;;;;;;;;5046462;28;20444;-89
2022/03/20 11:40:45;;;;;;;;;;;;;;;;;;5046120;28;20421;-90
2022/03/20 11:43:11;;;;;;;;;;;;;;;;;;5047777;28;20421;-89
2022/03/20 11:45:38;;;;;;;;;;;;;;;;;;5055652;28;20351;-88
2022/03/20 11:48:04;;;;;;;;;;;;;;;;;;5051169;28;20359;-89
2022/03/20 11:50:30;;;;;;;;;;;;;;;;;;5046602;28;20409;-88
2022/03/20 11:52:58;;;;;;;;;;;;;;;;;;5045332;28;20355;-92
2022/03/20 11:55:24;;;;;;;;;;;;;;;;;;5045770;28;20355;-90
2022/03/20 11:57:51;;;;;;;;;;;;;;;;;;5044712;28;20469;-90
2022/03/20 12:00:19;;;;;;;;;;;;;;;;;;5044732;28;20421;-90
2022/03/20 12:02:45;;;;;;;;;;;;;;;;;;5054429;28;20348;-89
2022/03/20 12:05:11;;;;;;;;;;;;;;;;;;5064974;28;20363;-91
2022/03/20 12:07:39;;;;;;;;;;;;;;;;;;5034530;28;20481;-92
2022/03/20 12:10:05;;;;;;;;;;;;;;;;;;5023945;28;20360;-89
2022/03/20 12:12:32;;;;;;;;;;;;;;;;;;5036923;28;20367;-89
2022/03/20 12:15:03;;;;;;;;;;;;;;;;;;5041920;28;20428;-89
2022/03/20 12:17:29;;;;;;;;;;;;;;;;;;5041896;28;20363;-92
2022/03/20 12:19:55;;;;;;;;;;;;;;;;;;5043012;28;21034;-88
2022/03/20 12:22:22;;;;;;;;;;;;;;;;;;5044190;28;20827;-90
2022/03/20 12:24:51;;;;;;;;;;;;;;;;;;5044661;28;20355;-88
2022/03/20 12:27:18;;;;;;;;;;;;;;;;;;5043887;28;20357;-89
2022/03/20 12:29:44;;;;;;;;;;;;;;;;;;5043905;28;20394;-88
2022/03/20 12:32:12;;;;;;;;;;;;;;;;;;5040510;28;20351;-89
2022/03/20 12:34:38;;;;;;;;;;;;;;;;;;5042630;28;20451;-91
2022/03/20 12:37:05;;;;;;;;;;;;;;;;;;5044587;28;20347;-90
2022/03/20 12:39:31;;;;;;;;;;;;;;;;;;5044857;28;20413;-91
2022/03/20 12:41:57;;;;;;;;;;;;;;;;;;5043191;28;20347;-89
2022/03/20 12:44:23;;;;;;;;;;;;;;;;;;5041802;28;20347;-89
2022/03/20 12:46:50;;;;;;;;;;;;;;;;;;5037952;28;20355;-88
2022/03/20 12:49:16;;;;;;;;;;;;;;;;;;5044376;28;20355;-88
2022/03/20 12:51:42;;;;;;;;;;;;;;;;;;5039492;28;20347;-91
2022/03/20 12:54:08;;;;;;;;;;;;;;;;;;5038200;28;20359;-87
2022/03/20 12:56:34;;;;;;;;;;;;;;;;;;5042890;28;20348;-87
2022/03/20 12:59:01;;;;;;;;;;;;;;;;;;5041871;28;20433;-88
2022/03/20 13:01:27;;;;;;;;;;;;;;;;;;5039336;28;20382;-93
2022/03/20 13:03:53;;;;;;;;;;;;;;;;;;5062695;28;20374;-92
2022/03/20 13:06:20;;;;;;;;;;;;;;;;;;5045406;28;20377;-88
2022/03/20 13:08:46;;;;;;;;;;;;;;;;;;5042820;28;20358;-90
2022/03/20 13:13:53;;;;;;;;;;;;;;;;;;5041778;28;20388;-89
2022/03/20 13:16:23;;;;;;;;;;;;;;;;;;5041103;28;20344;-89
2022/03/20 13:18:50;;;;;;;;;;;;;;;;;;5044750;28;20382;-88
2022/03/20 13:21:16;;;;;;;;;;;;;;;;;;5031492;28;20358;-89
2022/03/20 13:23:42;;;;;;;;;;;;;;;;;;5045009;28;20129;-88
2022/03/20 13:26:09;;;;;;;;;;;;;;;;;;5046068;28;20302;-89
2022/03/20 13:28:38;;;;;;;;;;;;;;;;;;5044631;28;20164;-89
2022/03/20 13:31:04;;;;;;;;;;;;;;;;;;5045519;28;19967;-90
2022/03/20 13:33:30;;;;;;;;;;;;;;;;;;5044170;28;19925;-94
2022/03/20 13:35:58;;;;;;;;;;;;;;;;;;5050007;28;19909;-93
2022/03/20 13:38:24;;;;;;;;;;;;;;;;;;5052248;28;19944;-91
2022/03/20 13:40:50;;;;;;;;;;;;;;;;;;5043323;28;19920;-90
2022/03/20 13:43:16;;;;;;;;;;;;;;;;;;5039340;28;19947;-90
2022/03/20 13:45:43;;;;;;;;;;;;;;;;;;5044142;28;19944;-91
2022/03/20 13:48:09;;;;;;;;;;;;;;;;;;5043463;28;19921;-89
2022/03/20 13:50:35;;;;;;;;;;;;;;;;;;5043657;28;19921;-89
2022/03/20 13:53:01;;;;;;;;;;;;;;;;;;5041262;28;19925;-90
2022/03/20 13:55:27;;;;;;;;;;;;;;;;;;5043099;28;19943;-90
2022/03/20 13:57:54;;;;;;;;;;;;;;;;;;5044287;28;19951;-91
2022/03/20 14:00:20;;;;;;;;;;;;;;;;;;5044271;28;19925;-90
2022/03/20 14:02:48;;;;;;;;;;;;;;;;;;5039489;28;20314;-90
2022/03/20 14:05:14;;;;;;;;;;;;;;;;;;5043863;28;20220;-89
2022/03/20 14:07:40;;;;;;;;;;;;;;;;;;5043559;28;20269;-91
2022/03/20 14:10:07;;;;;;;;;;;;;;;;;;5042962;28;20225;-91
2022/03/20 14:12:33;;;;;;;;;;;;;;;;;;5043367;28;19921;-90
2022/03/20 14:14:59;;;;;;;;;;;;;;;;;;5043724;28;20267;-89
2022/03/20 14:17:25;;;;;;;;;;;;;;;;;;5043803;28;20137;-91
2022/03/20 14:19:52;;;;;;;;;;;;;;;;;;5043806;28;19952;-92
2022/03/20 14:22:19;;;;;;;;;;;;;;;;;;5041188;28;20431;-90
2022/03/20 14:24:53;;;;;;;;;;;;;;;;;;5041842;28;20024;-95
2022/03/20 14:27:21;;;;;;;;;;;;;;;;;;5041502;28;20343;-91
2022/03/20 14:40:47;;;;;;;;;;;;;;;;;;5000523;28;19977;-93
2022/03/20 14:43:13;;;;;;;;;;;;;;;;;;5038000;28;19960;-92
2022/03/20 14:45:39;;;;;;;;;;;;;;;;;;5041458;28;19943;-91
2022/03/20 14:48:06;;;;;;;;;;;;;;;;;;5041288;28;19996;-92
2022/03/20 14:50:32;;;;;;;;;;;;;;;;;;5039507;28;19936;-94
2022/03/20 14:52:58;;;;;;;;;;;;;;;;;;5038691;28;19944;-92
2022/03/20 14:55:24;;;;;;;;;;;;;;;;;;5041173;28;19921;-90
2022/03/20 14:57:51;;;;;;;;;;;;;;;;;;5039818;28;20000;-92
2022/03/20 15:00:18;;;;;;;;;;;;;;;;;;5035593;28;20580;-92
2022/03/20 15:02:48;;;;;;;;;;;;;;;;;;5035633;28;20262;-93
2022/03/20 15:05:14;;;;;;;;;;;;;;;;;;5030142;28;20262;-94
2022/03/20 15:11:23;;;;;;;;;;;;;;;;;;5041193;28;19943;-90
2022/03/20 15:13:11;;;;;;;;;;;;;;;;;;5040480;28;20278;-91
2022/03/20 15:15:38;;;;;;;;;;;;;;;;;;5042264;28;19932;-90
2022/03/20 15:18:04;;;;;;;;;;;;;;;;;;5041921;28;19921;-92
2022/03/20 15:20:31;;;;;;;;;;;;;;;;;;5042630;28;19921;-94
2022/03/20 15:22:58;;;;;;;;;;;;;;;;;;5041363;28;19932;-92
2022/03/20 15:25:25;;;;;;;;;;;;;;;;;;5042851;28;20351;-94
2022/03/20 15:27:51;;;;;;;;;;;;;;;;;;5043318;28;20346;-93
2022/03/20 15:30:18;;;;;;;;;;;;;;;;;;5046767;28;20389;-90
2022/03/20 15:32:45;;;;;;;;;;;;;;;;;;5044299;28;19921;-91
2022/03/20 15:35:11;;;;;;;;;;;;;;;;;;5042809;28;19921;-90
2022/03/20 15:37:37;;;;;;;;;;;;;;;;;;5040828;28;19988;-89
2022/03/20 15:40:03;;;;;;;;;;;;;;;;;;5041302;28;19921;-92
2022/03/20 15:42:30;;;;;;;;;;;;;;;;;;5039835;28;19922;-91
2022/03/20 15:44:56;;;;;;;;;;;;;;;;;;5040681;28;20551;-93
2022/03/20 15:47:22;;;;;;;;;;;;;;;;;;5042169;28;20443;-92
2022/03/20 15:49:48;;;;;;;;;;;;;;;;;;5042993;28;20369;-90
2022/03/20 15:52:15;;;;;;;;;;;;;;;;;;5045649;28;20036;-94
2022/03/20 15:54:41;;;;;;;;;;;;;;;;;;5046614;28;19977;-91
2022/03/20 15:57:08;;;;;;;;;;;;;;;;;;5046244;28;20342;-92
2022/03/20 15:59:34;;;;;;;;;;;;;;;;;;5044866;28;20168;-95
2022/03/20 16:02:00;;;;;;;;;;;;;;;;;;5044071;28;19943;-90
2022/03/20 16:04:27;;;;;;;;;;;;;;;;;;5045469;28;19921;-93
2022/03/20 16:06:53;;;;;;;;;;;;;;;;;;5043211;28;19944;-92
2022/03/20 16:09:19;;;;;;;;;;;;;;;;;;5044862;28;19921;-94
2022/03/20 16:11:45;;;;;;;;;;;;;;;;;;5042632;28;19921;-92
2022/03/20 16:14:12;;;;;;;;;;;;;;;;;;5042663;28;20293;-90
2022/03/20 16:16:38;;;;;;;;;;;;;;;;;;5043991;28;20347;-91
2022/03/20 16:19:04;;;;;;;;;;;;;;;;;;5043161;28;20399;-92
2022/03/20 16:21:30;;;;;;;;;;;;;;;;;;5044946;28;20355;-91
2022/03/20 16:29:24;;;;;;;;;;;;;;;;;;5044803;28;20385;-89
2022/03/20 16:31:51;;;;;;;;;;;;;;;;;;5045106;28;20362;-93
2022/03/20 16:34:18;;;;;;;;;;;;;;;;;;5031494;28;20371;-92
2022/03/20 16:36:44;;;;;;;;;;;;;;;;;;5043256;28;20347;-92
2022/03/20 16:39:10;;;;;;;;;;;;;;;;;;5043251;28;20375;-90
2022/03/20 16:41:37;;;;;;;;;;;;;;;;;;5042592;28;20377;-95
2022/03/20 16:44:03;;;;;;;;;;;;;;;;;;5041156;28;20417;-91
2022/03/20 16:46:30;;;;;;;;;;;;;;;;;;5043707;28;20382;-96
2022/03/20 16:48:56;;;;;;;;;;;;;;;;;;5043543;28;20359;-95
2022/03/20 16:51:22;;;;;;;;;;;;;;;;;;5043835;28;20355;-92
2022/03/20 16:53:48;;;;;;;;;;;;;;;;;;5043252;28;20350;-92
2022/03/20 16:56:16;;;;;;;;;;;;;;;;;;5030603;28;20412;-94
2022/03/20 16:58:44;;;;;;;;;;;;;;;;;;5029636;28;19920;-93
2022/03/20 17:01:10;;;;;;;;;;;;;;;;;;5036735;28;19928;-92
2022/03/20 17:03:36;;;;;;;;;;;;;;;;;;5034001;28;20341;-94
2022/03/20 17:06:03;;;;;;;;;;;;;;;;;;5044291;28;20266;-92
2022/03/20 17:08:35;;;;;;;;;;;;;;;;;;5034723;28;20355;-94
2022/03/20 17:11:02;;;;;;;;;;;;;;;;;;5026466;28;20019;-92
2022/03/20 17:13:28;;;;;;;;;;;;;;;;;;5033672;28;19975;-93
2022/03/20 17:15:55;;;;;;;;;;;;;;;;;;5042926;28;19925;-92
2022/03/20 17:18:22;;;;;;;;;;;;;;;;;;5044058;28;19984;-92
2022/03/20 17:20:48;;;;;;;;;;;;;;;;;;5052726;28;19909;-92
2022/03/20 17:23:14;;;;;;;;;;;;;;;;;;5042765;28;20434;-92
2022/03/20 17:25:40;;;;;;;;;;;;;;;;;;5025462;28;20346;-91
2022/03/20 17:28:07;;;;;;;;;;;;;;;;;;5034500;28;20404;-92
2022/03/20 17:30:33;;;;;;;;;;;;;;;;;;5041942;28;19921;-92
2022/03/20 17:33:00;;;;;;;;;;;;;;;;;;5040575;28;19921;-92